Nesenie raksti

Ziņas

Par Gliding.lv

Gliding.lv ir interneta vietne par planieriem un planierismu. Šeit būs atrodama informācija par iespējām pamēģināt, iesaistīties un organizēt planierisma aktivitātes. Izmanto Gliding.lv forumu, ja Tev ir kāda tēma diskusijai vai jautājums. Gliding.lv merķis ir informēt un apvienot planierisma interesentus, nodrošinot un apmainoties ar aktuālāko un arī bijušo. Lidojam!

Laiks Rīgā
12°
overcast clouds
mitrums: 82%
vējš: 3m/s RDR
Aug 12 • Zem 11
11°
Otr
16°
Tre
12°
Cet
13°
Pie
Meteo-dati no OpenWeatherMap

METAR

EVRA 141750Z 25004KT 210V320 9999 -SHRA SCT021 SCT029CB OVC040 13/10 Q1011 R18/290195 NOSIG

EVLA 141750Z AUTO 26012KT 9999 OVC029/// 13/11 Q1013

EVVA 141750Z AUTO 29011KT 260V330 9999 SCT012 SCT018 OVC025 13/11 Q1011

Nesenie raksti

Pāriet uz rīkjoslu